createdAt,value
2023-07-10T00:01:17.930Z,16.90
2023-07-10T00:03:44.861Z,16.90
2023-07-10T00:06:13.476Z,16.90
2023-07-10T00:08:42.289Z,16.90
2023-07-10T00:11:41.034Z,16.90
2023-07-10T00:14:18.312Z,16.80
2023-07-10T00:16:45.355Z,16.70
2023-07-10T00:19:12.975Z,16.70
2023-07-10T00:21:39.984Z,16.90
2023-07-10T00:24:07.019Z,16.90
2023-07-10T00:26:33.833Z,17.00
2023-07-10T00:29:06.395Z,16.90
2023-07-10T00:31:34.060Z,17.00
2023-07-10T00:34:01.306Z,17.10
2023-07-10T00:36:34.359Z,17.20
2023-07-10T00:39:12.274Z,16.90
2023-07-10T00:41:41.158Z,16.80
2023-07-10T00:44:08.696Z,16.80
2023-07-10T00:46:42.926Z,16.80
2023-07-10T00:49:38.561Z,16.70
2023-07-10T00:52:28.043Z,16.80
2023-07-10T00:54:58.319Z,16.80
2023-07-10T00:57:36.702Z,16.60
2023-07-10T01:00:21.186Z,16.70
2023-07-10T01:02:48.907Z,16.80
2023-07-10T01:05:18.746Z,16.70
2023-07-10T01:07:52.630Z,16.60
2023-07-10T01:10:19.692Z,16.60
2023-07-10T01:12:47.960Z,16.60
2023-07-10T01:15:18.531Z,16.60
2023-07-10T01:17:48.262Z,16.60
2023-07-10T01:20:26.886Z,16.50
2023-07-10T01:22:53.872Z,16.40
2023-07-10T01:25:21.014Z,16.40
2023-07-10T01:27:47.889Z,16.40
2023-07-10T01:30:34.935Z,16.40
2023-07-10T01:33:02.733Z,16.30
2023-07-10T01:35:32.803Z,16.30
2023-07-10T01:37:59.868Z,16.20
2023-07-10T01:40:38.695Z,16.20
2023-07-10T01:43:05.651Z,16.30
2023-07-10T01:45:46.692Z,16.40
2023-07-10T01:48:15.174Z,16.30
2023-07-10T01:50:42.360Z,16.20
2023-07-10T01:53:10.734Z,16.10
2023-07-10T01:55:44.402Z,16.10
2023-07-10T01:58:14.768Z,16.10
2023-07-10T02:00:42.350Z,16.10
2023-07-10T02:03:09.784Z,16.10
2023-07-10T02:05:36.692Z,16.10
2023-07-10T02:08:03.656Z,16.20
2023-07-10T02:10:44.551Z,16.30
2023-07-10T02:13:12.377Z,16.40
2023-07-10T02:15:39.214Z,16.50
2023-07-10T02:18:06.166Z,16.50
2023-07-10T02:20:33.024Z,16.60
2023-07-10T02:22:59.826Z,16.40
2023-07-10T02:25:27.269Z,16.20
2023-07-10T02:27:54.079Z,16.10
2023-07-10T02:30:20.930Z,16.00
2023-07-10T02:32:47.742Z,16.00
2023-07-10T02:35:14.692Z,15.90
2023-07-10T02:37:41.480Z,15.90
2023-07-10T02:40:08.745Z,16.00
2023-07-10T02:42:35.561Z,16.10
2023-07-10T02:45:02.514Z,16.10
2023-07-10T02:47:29.389Z,16.20
2023-07-10T02:49:56.272Z,16.30
2023-07-10T02:52:23.060Z,16.20
2023-07-10T02:54:49.884Z,16.10
2023-07-10T02:57:16.748Z,16.00
2023-07-10T02:59:43.574Z,16.00
2023-07-10T03:02:10.355Z,15.90
2023-07-10T03:04:37.267Z,15.90
2023-07-10T03:07:04.840Z,16.00
2023-07-10T03:09:31.620Z,15.90
2023-07-10T03:11:58.438Z,15.80
2023-07-10T03:14:25.238Z,16.00
2023-07-10T03:16:52.227Z,15.90
2023-07-10T03:19:19.027Z,16.00
2023-07-10T03:21:46.036Z,15.90
2023-07-10T03:24:12.916Z,15.80
2023-07-10T03:26:39.753Z,15.80
2023-07-10T03:29:12.582Z,15.80
2023-07-10T03:31:39.602Z,15.70
2023-07-10T03:34:07.081Z,15.70
2023-07-10T03:36:34.105Z,15.80
2023-07-10T03:39:01.002Z,15.90
2023-07-10T03:41:28.137Z,16.10
2023-07-10T03:43:56.219Z,16.00
2023-07-10T03:46:23.320Z,15.80
2023-07-10T03:48:50.373Z,15.80
2023-07-10T03:51:18.198Z,15.90
2023-07-10T03:53:45.392Z,16.00
2023-07-10T03:56:12.258Z,16.00
2023-07-10T03:58:44.433Z,16.00
2023-07-10T04:01:12.348Z,16.00
2023-07-10T04:03:40.601Z,16.00
2023-07-10T04:06:10.231Z,15.90
2023-07-10T04:08:39.314Z,15.80
2023-07-10T04:11:18.778Z,15.90
2023-07-10T04:13:45.715Z,16.10
2023-07-10T04:16:27.599Z,16.10
2023-07-10T04:18:55.132Z,16.30
2023-07-10T04:21:24.942Z,16.40
2023-07-10T04:23:52.318Z,16.50
2023-07-10T04:26:24.661Z,16.20
2023-07-10T04:28:53.729Z,16.10
2023-07-10T04:31:22.785Z,16.10
2023-07-10T04:33:51.260Z,16.30
2023-07-10T04:36:19.206Z,16.40
2023-07-10T04:38:46.664Z,16.60
2023-07-10T04:41:16.859Z,16.80
2023-07-10T04:43:43.718Z,16.90
2023-07-10T04:46:12.639Z,16.90
2023-07-10T04:48:39.755Z,16.90
2023-07-10T04:51:09.169Z,17.10
2023-07-10T04:53:36.173Z,17.10
2023-07-10T04:56:06.046Z,17.20
2023-07-10T04:58:46.970Z,17.30
2023-07-10T05:01:13.934Z,17.40
2023-07-10T05:03:40.768Z,17.60
2023-07-10T05:06:07.619Z,17.70
2023-07-10T05:08:34.440Z,17.70
2023-07-10T05:11:02.195Z,17.80
2023-07-10T05:13:30.065Z,17.90
2023-07-10T05:15:58.588Z,17.90
2023-07-10T05:18:27.234Z,18.10
2023-07-10T05:20:54.767Z,18.20
2023-07-10T05:23:25.661Z,18.20
2023-07-10T05:26:11.387Z,18.30
2023-07-10T05:28:38.959Z,18.40
2023-07-10T05:31:08.119Z,18.50
2023-07-10T05:33:35.358Z,18.60
2023-07-10T05:36:06.241Z,18.70
2023-07-10T05:38:35.222Z,18.90
2023-07-10T05:41:02.420Z,19.10
2023-07-10T05:43:30.478Z,19.10
2023-07-10T05:45:57.947Z,19.30
2023-07-10T05:48:25.130Z,19.40
2023-07-10T05:50:52.850Z,19.50
2023-07-10T05:53:20.469Z,19.70
2023-07-10T05:55:50.525Z,19.70
2023-07-10T05:58:18.358Z,19.80
2023-07-10T06:00:49.431Z,19.90
2023-07-10T06:03:16.396Z,20.00
2023-07-10T06:05:43.269Z,20.10
2023-07-10T06:08:11.567Z,20.20
2023-07-10T06:10:38.808Z,20.30
2023-07-10T06:13:05.644Z,20.40
2023-07-10T06:15:32.883Z,20.40
2023-07-10T06:17:59.909Z,20.50
2023-07-10T06:20:27.631Z,20.60
2023-07-10T06:22:54.576Z,20.70
2023-07-10T06:25:21.374Z,20.80
2023-07-10T06:27:49.521Z,20.90
2023-07-10T06:30:18.590Z,21.00
2023-07-10T06:32:45.506Z,21.30
2023-07-10T06:35:15.025Z,21.30
2023-07-10T06:37:42.596Z,21.30
2023-07-10T06:40:15.367Z,21.50
2023-07-10T06:42:43.540Z,21.60
2023-07-10T06:45:12.105Z,21.70
2023-07-10T06:47:44.909Z,21.80
2023-07-10T06:50:14.532Z,21.80
2023-07-10T06:52:43.100Z,22.00
2023-07-10T06:55:17.308Z,22.20
2023-07-10T06:57:44.946Z,22.30
2023-07-10T07:00:16.010Z,22.50
2023-07-10T07:02:44.096Z,22.50
2023-07-10T07:05:11.634Z,22.70
2023-07-10T07:07:39.679Z,22.80
2023-07-10T07:10:09.263Z,22.80
2023-07-10T07:12:36.330Z,23.00
2023-07-10T07:15:03.209Z,23.10
2023-07-10T07:17:30.092Z,23.30
2023-07-10T07:19:56.953Z,23.40
2023-07-10T07:22:23.855Z,23.40
2023-07-10T07:24:50.694Z,23.50
2023-07-10T07:27:17.936Z,23.50
2023-07-10T07:29:45.557Z,23.60
2023-07-10T07:32:12.451Z,23.70
2023-07-10T07:34:39.358Z,23.90
2023-07-10T07:37:06.638Z,24.00
2023-07-10T07:39:33.835Z,24.10
2023-07-10T07:42:02.024Z,24.10
2023-07-10T07:44:28.906Z,24.20
2023-07-10T07:46:56.196Z,24.40
2023-07-10T07:49:25.151Z,24.70
2023-07-10T07:51:53.228Z,24.80
2023-07-10T07:54:20.397Z,25.00
2023-07-10T07:56:47.271Z,25.00
2023-07-10T07:59:14.827Z,25.10
2023-07-10T08:01:41.752Z,25.20
2023-07-10T08:04:08.737Z,25.30
2023-07-10T08:06:35.719Z,25.60
2023-07-10T08:09:03.590Z,25.70
2023-07-10T08:11:30.466Z,25.80
2023-07-10T08:13:57.489Z,26.00
2023-07-10T08:16:24.493Z,26.20
2023-07-10T08:18:51.448Z,26.20
2023-07-10T08:21:19.241Z,26.20
2023-07-10T08:23:46.084Z,26.30
2023-07-10T08:26:13.078Z,26.40
2023-07-10T08:28:39.928Z,26.50
2023-07-10T08:31:06.747Z,26.70
2023-07-10T08:33:33.607Z,26.80
2023-07-10T08:36:06.350Z,26.90
2023-07-10T08:38:35.327Z,27.00
2023-07-10T08:41:23.565Z,27.00
2023-07-10T08:43:50.533Z,27.00
2023-07-10T08:46:23.240Z,27.10
2023-07-10T08:49:34.723Z,27.10
2023-07-10T08:52:33.113Z,27.10
2023-07-10T08:54:59.941Z,27.20
2023-07-10T08:57:34.574Z,27.40
2023-07-10T09:00:07.637Z,27.60
2023-07-10T09:02:55.102Z,27.70
2023-07-10T09:05:30.613Z,27.80
2023-07-10T09:08:03.016Z,27.90
2023-07-10T09:10:42.824Z,27.80
2023-07-10T09:13:19.847Z,27.90
2023-07-10T09:15:52.782Z,27.90
2023-07-10T09:18:54.634Z,27.90
2023-07-10T09:21:29.397Z,28.00
2023-07-10T09:23:56.564Z,28.10
2023-07-10T09:26:30.216Z,28.30
2023-07-10T09:29:05.952Z,28.50
2023-07-10T09:32:08.611Z,28.60
2023-07-10T09:34:35.962Z,28.70
2023-07-10T09:37:09.776Z,28.80
2023-07-10T09:39:36.713Z,28.70
2023-07-10T09:42:05.320Z,28.80
2023-07-10T09:44:38.614Z,28.90
2023-07-10T09:47:11.248Z,28.70
2023-07-10T09:49:58.732Z,28.80
2023-07-10T09:52:29.448Z,29.00
2023-07-10T09:55:13.516Z,29.00
2023-07-10T09:57:59.729Z,29.10
2023-07-10T10:00:27.504Z,29.20
2023-07-10T10:03:10.533Z,29.30
2023-07-10T10:05:42.276Z,29.40
2023-07-10T10:08:29.286Z,29.20
2023-07-10T10:11:07.392Z,29.40
2023-07-10T10:13:41.038Z,29.30
2023-07-10T10:16:32.063Z,29.50
2023-07-10T10:19:25.090Z,29.70
2023-07-10T10:21:52.030Z,29.60
2023-07-10T10:24:19.185Z,29.60
2023-07-10T10:27:12.246Z,29.70
2023-07-10T10:30:10.911Z,29.90
2023-07-10T10:32:57.379Z,29.80
2023-07-10T10:35:32.101Z,30.00
2023-07-10T10:38:13.286Z,30.20
2023-07-10T10:41:00.322Z,30.10
2023-07-10T10:43:33.062Z,30.40
2023-07-10T10:46:11.010Z,30.40
2023-07-10T10:48:56.529Z,30.50
2023-07-10T10:51:45.901Z,30.60
2023-07-10T10:54:34.353Z,30.30
2023-07-10T10:57:13.431Z,30.50
2023-07-10T10:59:54.535Z,30.50
2023-07-10T11:02:41.660Z,30.70
2023-07-10T11:05:27.225Z,31.00
2023-07-10T11:07:59.551Z,31.00
2023-07-10T11:10:38.296Z,31.10
2023-07-10T11:13:06.983Z,31.00
2023-07-10T11:15:35.528Z,31.00
2023-07-10T11:18:02.799Z,31.10
2023-07-10T11:20:29.993Z,31.10
2023-07-10T11:22:58.757Z,31.40
2023-07-10T11:25:44.484Z,31.50
2023-07-10T11:28:29.401Z,31.50
2023-07-10T11:31:30.239Z,31.50
2023-07-10T11:34:06.437Z,31.70
2023-07-10T11:36:40.411Z,31.80
2023-07-10T11:39:07.179Z,31.60
2023-07-10T11:41:36.800Z,31.60
2023-07-10T11:44:21.087Z,31.50
2023-07-10T11:47:03.478Z,31.20
2023-07-10T11:49:41.826Z,31.40
2023-07-10T11:52:27.415Z,31.40
2023-07-10T11:54:56.931Z,31.70
2023-07-10T11:57:28.044Z,31.80
2023-07-10T11:59:56.381Z,31.70
2023-07-10T12:02:49.955Z,31.60
2023-07-10T12:05:21.549Z,31.70
2023-07-10T12:08:06.452Z,31.50
2023-07-10T12:10:43.732Z,31.20
2023-07-10T12:13:24.390Z,31.10
2023-07-10T12:15:53.541Z,31.10
2023-07-10T12:18:25.467Z,31.10
2023-07-10T12:20:54.481Z,31.40
2023-07-10T12:23:21.435Z,31.70
2023-07-10T12:25:53.185Z,31.80
2023-07-10T12:28:27.651Z,32.00
2023-07-10T12:30:57.660Z,32.00
2023-07-10T12:33:43.690Z,32.00
2023-07-10T12:36:27.918Z,32.00
2023-07-10T12:38:58.163Z,31.90
2023-07-10T12:45:17.183Z,31.90
2023-07-10T12:47:58.748Z,31.90
2023-07-10T12:50:37.860Z,32.00
2023-07-10T12:53:07.022Z,32.10
2023-07-10T12:55:34.540Z,31.90
2023-07-10T12:58:04.884Z,32.00
2023-07-10T13:00:43.422Z,32.20
2023-07-10T13:03:31.950Z,32.20
2023-07-10T13:06:11.571Z,31.80
2023-07-10T13:08:45.318Z,31.70
2023-07-10T13:11:35.711Z,31.50
2023-07-10T13:16:44.809Z,31.40
2023-07-10T13:19:11.904Z,31.40
2023-07-10T13:21:38.868Z,31.40
2023-07-10T13:24:06.141Z,31.20
2023-07-10T13:26:33.004Z,30.90
2023-07-10T13:28:59.890Z,30.70
2023-07-10T13:31:31.722Z,30.60
2023-07-10T13:33:58.750Z,30.60
2023-07-10T13:36:28.165Z,30.50
2023-07-10T13:38:55.488Z,30.50
2023-07-10T13:41:25.287Z,30.50
2023-07-10T13:43:52.819Z,30.50
2023-07-10T13:46:31.932Z,30.50
2023-07-10T13:49:05.811Z,30.40
2023-07-10T13:51:34.642Z,30.30
2023-07-10T13:54:03.050Z,30.20
2023-07-10T13:56:36.772Z,30.20
2023-07-10T14:03:05.954Z,29.70
2023-07-10T14:05:41.326Z,29.50
2023-07-10T14:08:17.325Z,29.40
2023-07-10T14:10:51.999Z,29.40
2023-07-10T14:13:19.512Z,29.20
2023-07-10T14:15:47.229Z,29.10
2023-07-10T14:18:23.944Z,29.00
2023-07-10T14:20:50.811Z,28.90
2023-07-10T14:23:19.976Z,28.90
2023-07-10T14:25:48.428Z,28.80
2023-07-10T14:28:21.481Z,28.70
2023-07-10T14:30:49.127Z,28.50
2023-07-10T14:33:16.414Z,28.30
2023-07-10T14:35:44.183Z,28.30
2023-07-10T14:38:19.258Z,28.20
2023-07-10T14:40:46.597Z,28.10
2023-07-10T14:43:13.613Z,28.00
2023-07-10T14:45:53.084Z,27.80
2023-07-10T14:48:22.595Z,27.30
2023-07-10T14:50:50.121Z,27.30
2023-07-10T14:53:22.655Z,27.20
2023-07-10T14:55:54.877Z,27.00
2023-07-10T14:58:25.027Z,26.90
2023-07-10T15:00:53.651Z,26.60
2023-07-10T15:03:21.297Z,26.40
2023-07-10T15:05:50.644Z,26.30
2023-07-10T15:08:20.506Z,26.40
2023-07-10T15:10:47.461Z,26.30
2023-07-10T15:13:20.366Z,26.30
2023-07-10T15:15:48.088Z,26.20
2023-07-10T15:18:17.157Z,26.00
2023-07-10T15:20:45.556Z,25.90
2023-07-10T15:23:23.418Z,25.80
2023-07-10T15:25:52.312Z,26.10
2023-07-10T15:28:20.239Z,26.10
2023-07-10T15:30:59.434Z,26.00
2023-07-10T15:33:30.816Z,25.80
2023-07-10T15:35:57.530Z,25.70
2023-07-10T15:38:24.366Z,25.90
2023-07-10T15:40:58.032Z,25.90
2023-07-10T15:43:34.296Z,26.00
2023-07-10T15:46:01.853Z,26.10
2023-07-10T15:48:29.753Z,26.10
2023-07-10T15:50:58.305Z,26.00
2023-07-10T15:53:30.429Z,26.10
2023-07-10T15:55:57.902Z,26.10
2023-07-10T15:58:26.027Z,26.30
2023-07-10T16:00:55.862Z,26.40
2023-07-10T16:03:28.954Z,26.40
2023-07-10T16:05:58.882Z,26.20
2023-07-10T16:08:28.530Z,26.00
2023-07-10T16:10:59.159Z,26.00
2023-07-10T16:13:28.197Z,26.20
2023-07-10T16:15:55.077Z,26.60
2023-07-10T16:18:31.468Z,26.60
2023-07-10T16:21:03.200Z,26.70
2023-07-10T16:23:53.841Z,26.80
2023-07-10T16:26:22.430Z,26.80
2023-07-10T16:28:49.323Z,26.80
2023-07-10T16:31:20.723Z,26.60
2023-07-10T16:33:47.633Z,26.50
2023-07-10T16:36:15.714Z,26.60
2023-07-10T16:38:42.678Z,26.70
2023-07-10T16:41:16.257Z,27.00
2023-07-10T16:43:43.829Z,27.10
2023-07-10T16:46:12.584Z,27.00
2023-07-10T16:48:40.813Z,26.80
2023-07-10T16:51:20.996Z,26.70
2023-07-10T16:53:47.839Z,26.70
2023-07-10T16:56:19.306Z,26.60
2023-07-10T16:58:46.584Z,26.40
2023-07-10T17:01:34.006Z,26.20
2023-07-10T17:04:01.966Z,26.10
2023-07-10T17:06:33.897Z,26.00
2023-07-10T17:09:05.451Z,25.80
2023-07-10T17:11:35.224Z,25.80
2023-07-10T17:14:02.776Z,25.80
2023-07-10T17:16:29.830Z,25.70
2023-07-10T17:18:56.724Z,25.50
2023-07-10T17:21:23.599Z,25.00
2023-07-10T17:23:50.552Z,24.70
2023-07-10T17:26:20.577Z,24.70
2023-07-10T17:28:48.195Z,24.60
2023-07-10T17:31:28.096Z,24.50
2023-07-10T17:34:25.709Z,24.50
2023-07-10T17:36:52.536Z,24.30
2023-07-10T17:39:24.376Z,24.30
2023-07-10T17:41:53.850Z,24.40
2023-07-10T17:44:26.441Z,23.90
2023-07-10T17:46:53.915Z,23.80
2023-07-10T17:49:21.409Z,23.40
2023-07-10T17:51:48.691Z,23.40
2023-07-10T17:54:35.393Z,23.20
2023-07-10T17:57:03.667Z,23.20
2023-07-10T17:59:30.741Z,23.20
2023-07-10T18:02:00.138Z,23.00
2023-07-10T18:04:28.080Z,23.20
2023-07-10T18:06:55.190Z,23.40
2023-07-10T18:09:27.481Z,23.00
2023-07-10T18:11:56.049Z,22.90
2023-07-10T18:14:23.849Z,22.90
2023-07-10T18:16:50.911Z,22.90
2023-07-10T18:19:19.881Z,23.00
2023-07-10T18:21:52.379Z,23.10
2023-07-10T18:24:24.415Z,23.10
2023-07-10T18:26:51.819Z,23.10
2023-07-10T18:29:18.784Z,23.10
2023-07-10T18:31:45.706Z,22.90
2023-07-10T18:34:21.727Z,22.80
2023-07-10T18:36:49.896Z,22.60
2023-07-10T18:39:19.653Z,22.80
2023-07-10T18:41:47.306Z,22.90
2023-07-10T18:44:16.448Z,22.90
2023-07-10T18:46:43.448Z,22.70
2023-07-10T18:49:20.279Z,22.70
2023-07-10T18:51:49.146Z,22.70
2023-07-10T18:54:19.847Z,22.50
2023-07-10T18:56:46.851Z,22.60
2023-07-10T18:59:21.901Z,22.30
2023-07-10T19:01:52.788Z,22.40
2023-07-10T19:04:21.417Z,22.30
2023-07-10T19:06:51.477Z,22.20
2023-07-10T19:09:21.420Z,22.10
2023-07-10T19:11:48.851Z,22.10
2023-07-10T19:14:17.701Z,21.90
2023-07-10T19:17:22.250Z,21.70
2023-07-10T19:19:58.313Z,22.30
2023-07-10T19:22:25.143Z,22.50
2023-07-10T19:24:52.910Z,22.50
2023-07-10T19:27:19.821Z,22.40
2023-07-10T19:32:25.205Z,22.20
2023-07-10T19:34:53.437Z,22.10
2023-07-10T19:37:20.315Z,21.90
2023-07-10T19:39:47.934Z,21.60
2023-07-10T19:42:14.962Z,21.50
2023-07-10T19:44:48.150Z,21.40
2023-07-10T19:47:17.808Z,21.40
2023-07-10T19:50:20.972Z,21.30
2023-07-10T19:52:48.216Z,21.20
2023-07-10T19:55:16.486Z,21.20
2023-07-10T19:57:44.024Z,21.40
2023-07-10T20:00:26.637Z,21.30
2023-07-10T20:02:53.583Z,21.30
2023-07-10T20:05:20.552Z,21.30
2023-07-10T20:07:47.374Z,21.30
2023-07-10T20:10:21.114Z,21.20
2023-07-10T20:12:49.985Z,21.30
2023-07-10T20:15:16.909Z,21.30
2023-07-10T20:17:46.718Z,21.20
2023-07-10T20:20:19.039Z,21.40
2023-07-10T20:22:46.141Z,21.20
2023-07-10T20:25:13.034Z,21.20
2023-07-10T20:27:39.921Z,21.20
2023-07-10T20:30:07.429Z,21.00
2023-07-10T20:32:34.552Z,20.90
2023-07-10T20:35:01.429Z,21.10
2023-07-10T20:37:28.229Z,21.00
2023-07-10T20:39:55.175Z,20.80
2023-07-10T20:42:23.232Z,20.80
2023-07-10T20:44:50.941Z,20.80
2023-07-10T20:47:18.059Z,21.00
2023-07-10T20:49:48.050Z,21.00
2023-07-10T20:52:18.041Z,20.90
2023-07-10T20:54:48.228Z,20.60
2023-07-10T20:57:15.505Z,20.50
2023-07-10T20:59:42.455Z,20.10
2023-07-10T21:02:20.734Z,19.90
2023-07-10T21:04:47.784Z,20.00
2023-07-10T21:07:18.396Z,20.20
2023-07-10T21:09:48.306Z,20.20
2023-07-10T21:12:18.195Z,20.30
2023-07-10T21:14:46.095Z,20.20
2023-07-10T21:17:22.513Z,20.00
2023-07-10T21:19:49.916Z,20.00
2023-07-10T21:22:18.457Z,20.00
2023-07-10T21:24:48.642Z,20.20
2023-07-10T21:27:26.369Z,20.30
2023-07-10T21:29:54.209Z,20.00
2023-07-10T21:32:25.473Z,19.80
2023-07-10T21:34:53.238Z,19.90
2023-07-10T21:37:20.175Z,19.80
2023-07-10T21:39:47.088Z,19.90
2023-07-10T21:42:25.757Z,20.00
2023-07-10T21:44:54.477Z,20.10
2023-07-10T21:47:21.830Z,20.00
2023-07-10T21:49:49.358Z,19.80
2023-07-10T21:52:16.393Z,19.40
2023-07-10T21:54:43.248Z,19.20
2023-07-10T21:57:22.468Z,19.20
2023-07-10T21:59:49.509Z,19.20
2023-07-10T22:02:16.504Z,19.30
2023-07-10T22:04:43.354Z,19.10
2023-07-10T22:07:10.215Z,19.00
2023-07-10T22:09:37.065Z,19.30
2023-07-10T22:12:04.292Z,19.60
2023-07-10T22:14:31.184Z,19.50
2023-07-10T22:17:13.804Z,19.70
2023-07-10T22:19:43.550Z,19.40
2023-07-10T22:22:11.671Z,19.40
2023-07-10T22:24:38.643Z,19.10
2023-07-10T22:27:05.926Z,19.30
2023-07-10T22:29:32.941Z,19.40
2023-07-10T22:31:59.874Z,19.30
2023-07-10T22:34:26.857Z,19.10
2023-07-10T22:36:53.673Z,18.80
2023-07-10T22:39:20.519Z,18.80
2023-07-10T22:41:47.381Z,18.90
2023-07-10T22:44:17.071Z,18.90
2023-07-10T22:46:45.769Z,19.00
2023-07-10T22:49:14.514Z,18.80
2023-07-10T22:51:42.759Z,18.80
2023-07-10T22:54:11.526Z,18.80
2023-07-10T22:56:42.127Z,18.90
2023-07-10T22:59:16.049Z,18.50
2023-07-10T23:01:44.578Z,18.50
2023-07-10T23:04:12.545Z,18.80
2023-07-10T23:06:39.480Z,18.80
2023-07-10T23:09:06.871Z,18.70
2023-07-10T23:11:33.738Z,18.60
2023-07-10T23:14:00.945Z,18.50
2023-07-10T23:16:27.993Z,18.50
2023-07-10T23:18:57.468Z,18.60
2023-07-10T23:21:25.800Z,18.60
2023-07-10T23:23:53.124Z,18.70
2023-07-10T23:26:21.844Z,18.80
2023-07-10T23:28:48.918Z,18.50
2023-07-10T23:31:21.627Z,18.50
2023-07-10T23:33:49.819Z,18.50
2023-07-10T23:36:27.517Z,18.50
2023-07-10T23:38:56.651Z,18.40
2023-07-10T23:41:23.906Z,18.30
2023-07-10T23:43:50.779Z,18.20
2023-07-10T23:46:17.966Z,18.40
2023-07-10T23:48:44.957Z,18.40
2023-07-10T23:51:11.804Z,18.30
2023-07-10T23:53:39.056Z,18.30
2023-07-10T23:56:06.618Z,18.30
2023-07-10T23:58:33.640Z,18.30
